createdAt,value
2022-12-14T00:02:09.850Z,-0.30
2022-12-14T00:04:40.698Z,-0.30
2022-12-14T00:07:11.934Z,-0.30
2022-12-14T00:09:43.526Z,-0.30
2022-12-14T00:12:13.725Z,-0.30
2022-12-14T00:14:41.937Z,-0.30
2022-12-14T00:17:10.198Z,-0.30
2022-12-14T00:19:38.435Z,-0.30
2022-12-14T00:22:07.834Z,-0.30
2022-12-14T00:24:36.462Z,-0.30
2022-12-14T00:27:04.807Z,-0.30
2022-12-14T00:29:36.743Z,-0.30
2022-12-14T00:32:05.968Z,-0.30
2022-12-14T00:34:34.287Z,-0.30
2022-12-14T00:37:02.583Z,-0.30
2022-12-14T00:39:31.426Z,-0.30
2022-12-14T00:41:59.734Z,-0.30
2022-12-14T00:44:28.413Z,-0.30
2022-12-14T00:46:58.078Z,-0.30
2022-12-14T00:49:26.608Z,-0.30
2022-12-14T00:51:56.197Z,-0.30
2022-12-14T00:54:24.447Z,-0.30
2022-12-14T00:56:52.827Z,-0.30
2022-12-14T00:59:25.751Z,-0.30
2022-12-14T01:01:59.539Z,-0.30
2022-12-14T01:04:30.357Z,-0.30
2022-12-14T01:06:58.680Z,-0.30
2022-12-14T01:09:28.010Z,-0.30
2022-12-14T01:11:57.700Z,-0.30
2022-12-14T01:14:26.347Z,-0.30
2022-12-14T01:16:54.657Z,-0.30
2022-12-14T01:19:24.588Z,-0.30
2022-12-14T01:21:54.144Z,-0.40
2022-12-14T01:24:22.828Z,-0.40
2022-12-14T01:26:51.308Z,-0.30
2022-12-14T01:29:19.854Z,-0.30
2022-12-14T01:31:48.792Z,-0.30
2022-12-14T01:34:17.535Z,-0.30
2022-12-14T01:36:47.520Z,-0.30
2022-12-14T01:39:17.167Z,-0.30
2022-12-14T01:41:49.449Z,-0.30
2022-12-14T01:44:54.481Z,-0.30
2022-12-14T01:47:29.568Z,-0.30
2022-12-14T01:50:02.507Z,-0.20
2022-12-14T01:52:36.489Z,-0.20
2022-12-14T01:55:08.803Z,-0.20
2022-12-14T01:57:43.060Z,-0.20
2022-12-14T02:00:15.358Z,-0.20
2022-12-14T02:02:49.851Z,-0.20
2022-12-14T02:05:19.680Z,-0.20
2022-12-14T02:07:51.923Z,-0.20
2022-12-14T02:10:23.672Z,-0.20
2022-12-14T02:12:57.842Z,-0.20
2022-12-14T02:15:26.331Z,-0.20
2022-12-14T02:17:54.603Z,-0.20
2022-12-14T02:20:25.774Z,-0.20
2022-12-14T02:23:21.332Z,-0.20
2022-12-14T02:26:23.684Z,-0.20
2022-12-14T02:29:21.614Z,-0.20
2022-12-14T02:31:59.155Z,-0.20
2022-12-14T02:34:36.396Z,-0.20
2022-12-14T02:37:12.219Z,-0.20
2022-12-14T02:39:49.697Z,-0.20
2022-12-14T02:42:27.249Z,-0.20
2022-12-14T02:45:03.616Z,-0.20
2022-12-14T02:47:40.887Z,-0.30
2022-12-14T02:50:13.773Z,-0.30
2022-12-14T02:52:48.326Z,-0.30
2022-12-14T02:55:21.364Z,-0.30
2022-12-14T02:57:55.004Z,-0.30
2022-12-14T03:00:25.442Z,-0.30
2022-12-14T03:02:54.345Z,-0.30
2022-12-14T03:05:22.795Z,-0.30
2022-12-14T03:07:53.639Z,-0.30
2022-12-14T03:10:31.845Z,-0.30
2022-12-14T03:13:06.545Z,-0.30
2022-12-14T03:15:38.792Z,-0.30
2022-12-14T03:18:12.498Z,-0.20
2022-12-14T03:20:43.664Z,-0.20
2022-12-14T03:23:15.936Z,-0.20
2022-12-14T03:25:48.767Z,-0.20
2022-12-14T03:28:21.355Z,-0.20
2022-12-14T03:31:00.258Z,-0.20
2022-12-14T03:33:32.564Z,-0.20
2022-12-14T03:36:06.049Z,-0.20
2022-12-14T03:38:38.490Z,-0.20
2022-12-14T03:41:15.228Z,-0.20
2022-12-14T03:43:54.868Z,-0.20
2022-12-14T03:46:34.761Z,-0.20
2022-12-14T03:49:13.252Z,-0.20
2022-12-14T03:51:48.055Z,-0.20
2022-12-14T03:54:22.323Z,-0.20
2022-12-14T03:56:55.728Z,-0.20
2022-12-14T03:59:30.397Z,-0.20
2022-12-14T04:02:04.778Z,-0.20
2022-12-14T04:04:36.977Z,-0.20
2022-12-14T04:07:12.258Z,-0.20
2022-12-14T04:09:49.099Z,-0.20
2022-12-14T04:12:37.723Z,-0.20
2022-12-14T04:15:27.006Z,-0.20
2022-12-14T04:18:20.200Z,-0.20
2022-12-14T04:20:51.830Z,-0.20
2022-12-14T04:23:44.512Z,-0.20
2022-12-14T04:26:17.396Z,-0.20
2022-12-14T04:29:09.662Z,-0.20
2022-12-14T04:31:40.702Z,-0.20
2022-12-14T04:34:14.999Z,-0.20
2022-12-14T04:36:47.139Z,-0.20
2022-12-14T04:39:22.143Z,-0.20
2022-12-14T04:41:55.655Z,-0.20
2022-12-14T04:44:29.493Z,-0.20
2022-12-14T04:47:00.007Z,-0.20
2022-12-14T04:49:33.987Z,-0.20
2022-12-14T04:52:06.124Z,-0.20
2022-12-14T04:54:42.453Z,-0.30
2022-12-14T04:57:19.750Z,-0.30
2022-12-14T04:59:48.651Z,-0.30
2022-12-14T05:02:24.583Z,-0.30
2022-12-14T05:05:04.315Z,-0.40
2022-12-14T05:07:41.798Z,-0.40
2022-12-14T05:10:15.539Z,-0.40
2022-12-14T05:12:50.800Z,-0.40
2022-12-14T05:15:23.476Z,-0.40
2022-12-14T05:17:52.918Z,-0.40
2022-12-14T05:20:25.182Z,-0.40
2022-12-14T05:22:53.751Z,-0.50
2022-12-14T05:25:21.981Z,-0.50
2022-12-14T05:27:50.247Z,-0.50
2022-12-14T05:30:18.669Z,-0.50
2022-12-14T05:32:47.128Z,-0.50
2022-12-14T05:35:15.974Z,-0.60
2022-12-14T05:37:46.008Z,-0.60
2022-12-14T05:40:18.336Z,-0.60
2022-12-14T05:42:49.828Z,-0.60
2022-12-14T05:45:22.285Z,-0.60
2022-12-14T05:47:50.497Z,-0.60
2022-12-14T05:50:18.786Z,-0.60
2022-12-14T05:52:48.460Z,-0.60
2022-12-14T05:55:16.838Z,-0.60
2022-12-14T05:57:45.255Z,-0.50
2022-12-14T06:00:14.385Z,-0.50
2022-12-14T06:02:42.951Z,-0.50
2022-12-14T06:05:11.643Z,-0.50
2022-12-14T06:07:39.923Z,-0.50
2022-12-14T06:10:10.549Z,-0.50
2022-12-14T06:12:38.818Z,-0.50
2022-12-14T06:15:08.580Z,-0.50
2022-12-14T06:17:37.566Z,-0.50
2022-12-14T06:20:06.762Z,-0.40
2022-12-14T06:22:34.976Z,-0.40
2022-12-14T06:25:03.318Z,-0.40
2022-12-14T06:27:33.166Z,-0.40
2022-12-14T06:30:01.394Z,-0.40
2022-12-14T06:32:30.804Z,-0.40
2022-12-14T06:34:59.076Z,-0.40
2022-12-14T06:37:27.382Z,-0.40
2022-12-14T06:39:55.731Z,-0.40
2022-12-14T06:42:24.029Z,-0.40
2022-12-14T06:44:53.682Z,-0.40
2022-12-14T06:47:21.960Z,-0.40
2022-12-14T06:49:51.949Z,-0.40
2022-12-14T06:52:26.439Z,-0.40
2022-12-14T06:54:56.983Z,-0.30
2022-12-14T06:57:25.329Z,-0.30
2022-12-14T06:59:55.010Z,-0.30
2022-12-14T07:02:23.514Z,-0.30
2022-12-14T07:04:51.938Z,-0.30
2022-12-14T07:07:20.436Z,-0.30
2022-12-14T07:09:48.915Z,-0.30
2022-12-14T07:12:17.190Z,-0.30
2022-12-14T07:14:45.411Z,-0.30
2022-12-14T07:17:15.087Z,-0.30
2022-12-14T07:19:44.537Z,-0.30
2022-12-14T07:22:17.881Z,-0.30
2022-12-14T07:24:46.562Z,-0.30
2022-12-14T07:27:14.760Z,-0.20
2022-12-14T07:29:42.956Z,-0.20
2022-12-14T07:32:11.230Z,-0.20
2022-12-14T07:34:41.096Z,-0.20
2022-12-14T07:37:09.336Z,-0.20
2022-12-14T07:39:37.601Z,-0.20
2022-12-14T07:42:05.772Z,-0.30
2022-12-14T07:44:34.177Z,-0.30
2022-12-14T07:47:03.394Z,-0.20
2022-12-14T07:49:31.623Z,-0.20
2022-12-14T07:52:01.172Z,-0.20
2022-12-14T07:54:29.761Z,-0.20
2022-12-14T07:56:58.275Z,-0.10
2022-12-14T07:59:26.474Z,-0.10
2022-12-14T08:01:55.763Z,0.00
2022-12-14T08:04:24.175Z,0.00
2022-12-14T08:06:52.497Z,0.10
2022-12-14T08:09:22.166Z,0.10
2022-12-14T08:11:50.591Z,0.10
2022-12-14T08:14:20.277Z,0.20
2022-12-14T08:16:50.039Z,0.20
2022-12-14T08:19:19.077Z,0.20
2022-12-14T08:21:47.516Z,0.20
2022-12-14T08:24:16.957Z,0.20
2022-12-14T08:26:47.231Z,0.30
2022-12-14T08:29:18.228Z,0.30
2022-12-14T08:31:46.882Z,0.30
2022-12-14T08:34:16.056Z,0.30
2022-12-14T08:36:44.650Z,0.30
2022-12-14T08:39:13.359Z,0.30
2022-12-14T08:41:42.088Z,0.30
2022-12-14T08:44:13.199Z,0.30
2022-12-14T08:46:42.417Z,0.30
2022-12-14T08:49:12.494Z,0.40
2022-12-14T08:51:40.701Z,0.40
2022-12-14T08:54:09.097Z,0.40
2022-12-14T08:56:37.462Z,0.40
2022-12-14T08:59:05.745Z,0.40
2022-12-14T09:01:35.681Z,0.40
2022-12-14T09:04:05.807Z,0.40
2022-12-14T09:06:37.170Z,0.40
2022-12-14T09:09:10.437Z,0.40
2022-12-14T09:11:43.696Z,0.40
2022-12-14T09:14:12.136Z,0.40
2022-12-14T09:16:42.016Z,0.40
2022-12-14T09:19:10.324Z,0.40
2022-12-14T09:21:39.854Z,0.40
2022-12-14T09:24:09.636Z,0.50
2022-12-14T09:26:38.016Z,0.60
2022-12-14T09:29:06.623Z,0.60
2022-12-14T09:31:35.187Z,0.70
2022-12-14T09:34:05.020Z,0.70
2022-12-14T09:36:33.612Z,0.80
2022-12-14T09:39:02.202Z,0.70
2022-12-14T09:41:43.791Z,0.70
2022-12-14T09:44:19.468Z,0.70
2022-12-14T09:47:01.239Z,0.60
2022-12-14T09:49:35.612Z,0.60
2022-12-14T09:52:10.732Z,0.60
2022-12-14T09:54:40.506Z,0.60
2022-12-14T09:57:15.152Z,0.60
2022-12-14T09:59:44.003Z,0.70
2022-12-14T10:02:32.479Z,0.60
2022-12-14T10:05:25.912Z,0.70
2022-12-14T10:08:04.062Z,0.70
2022-12-14T10:10:37.981Z,0.70
2022-12-14T10:13:18.462Z,0.70
2022-12-14T10:15:56.429Z,0.70
2022-12-14T10:18:59.022Z,0.60
2022-12-14T10:21:40.362Z,0.60
2022-12-14T10:24:13.771Z,0.60
2022-12-14T10:26:48.519Z,0.50
2022-12-14T10:29:22.739Z,0.50
2022-12-14T10:31:57.915Z,0.40
2022-12-14T10:34:31.002Z,0.40
2022-12-14T10:37:13.649Z,0.40
2022-12-14T10:39:50.928Z,0.40
2022-12-14T10:42:27.466Z,0.40
2022-12-14T10:47:58.585Z,0.40
2022-12-14T10:50:33.958Z,0.40
2022-12-14T10:53:06.505Z,0.40
2022-12-14T10:55:39.850Z,0.50
2022-12-14T10:58:08.164Z,0.50
2022-12-14T11:00:37.267Z,0.50
2022-12-14T11:03:13.312Z,0.60
2022-12-14T11:05:47.812Z,0.60
2022-12-14T11:08:41.037Z,0.60
2022-12-14T11:11:16.995Z,0.70
2022-12-14T11:13:52.501Z,0.80
2022-12-14T11:16:33.711Z,0.90
2022-12-14T11:19:06.300Z,1.10
2022-12-14T11:21:36.824Z,1.30
2022-12-14T11:24:07.957Z,1.40
2022-12-14T11:26:39.143Z,1.50
2022-12-14T11:29:17.488Z,1.60
2022-12-14T11:31:47.857Z,1.60
2022-12-14T11:34:26.720Z,1.70
2022-12-14T11:36:55.028Z,1.60
2022-12-14T11:39:26.192Z,1.60
2022-12-14T11:42:02.552Z,1.50
2022-12-14T11:44:34.266Z,1.50
2022-12-14T11:47:06.024Z,1.50
2022-12-14T11:49:37.411Z,1.50
2022-12-14T11:52:12.063Z,1.50
2022-12-14T11:54:49.494Z,1.60
2022-12-14T11:57:25.972Z,1.60
2022-12-14T11:59:56.253Z,1.60
2022-12-14T12:02:30.081Z,1.60
2022-12-14T12:05:05.741Z,1.60
2022-12-14T12:07:36.220Z,1.70
2022-12-14T12:10:16.522Z,1.70
2022-12-14T12:12:55.049Z,1.70
2022-12-14T12:15:26.334Z,1.80
2022-12-14T12:18:01.681Z,1.80
2022-12-14T12:20:36.139Z,1.90
2022-12-14T12:23:12.893Z,1.90
2022-12-14T12:25:44.777Z,1.90
2022-12-14T12:28:18.838Z,1.90
2022-12-14T12:30:51.988Z,1.90
2022-12-14T12:33:30.070Z,1.80
2022-12-14T12:36:03.243Z,1.70
2022-12-14T12:38:42.934Z,1.60
2022-12-14T12:41:31.013Z,1.60
2022-12-14T12:44:03.146Z,1.60
2022-12-14T12:46:43.978Z,1.70
2022-12-14T12:49:23.735Z,1.70
2022-12-14T12:51:58.882Z,1.70
2022-12-14T12:54:31.049Z,1.70
2022-12-14T12:57:03.472Z,1.80
2022-12-14T12:59:37.673Z,1.80
2022-12-14T13:02:20.150Z,1.90
2022-12-14T13:04:52.912Z,2.00
2022-12-14T13:07:33.571Z,2.00
2022-12-14T13:10:06.244Z,2.00
2022-12-14T13:12:40.829Z,2.00
2022-12-14T13:15:19.195Z,1.90
2022-12-14T13:17:51.587Z,1.90
2022-12-14T13:20:23.516Z,1.80
2022-12-14T13:22:52.367Z,1.70
2022-12-14T13:25:27.666Z,1.70
2022-12-14T13:28:14.865Z,1.60
2022-12-14T13:30:55.709Z,1.50
2022-12-14T13:33:56.519Z,1.50
2022-12-14T13:36:57.033Z,1.50
2022-12-14T13:39:50.849Z,1.50
2022-12-14T13:42:26.185Z,1.50
2022-12-14T13:45:01.022Z,1.50
2022-12-14T13:47:34.494Z,1.50
2022-12-14T13:50:48.577Z,1.50
2022-12-14T13:52:59.361Z,1.50
2022-12-14T13:55:33.323Z,1.50
2022-12-14T13:58:14.431Z,1.60
2022-12-14T14:01:08.600Z,1.70
2022-12-14T14:03:47.781Z,1.80
2022-12-14T14:06:23.975Z,1.80
2022-12-14T14:08:53.717Z,1.70
2022-12-14T14:11:57.259Z,1.60
2022-12-14T14:14:49.198Z,1.60
2022-12-14T14:17:24.815Z,1.50
2022-12-14T14:19:55.923Z,1.40
2022-12-14T14:22:27.432Z,1.40
2022-12-14T14:24:59.338Z,1.30
2022-12-14T14:27:37.181Z,1.30
2022-12-14T14:30:24.879Z,1.30
2022-12-14T14:33:02.993Z,1.20
2022-12-14T14:35:41.863Z,1.10
2022-12-14T14:38:23.816Z,1.10
2022-12-14T14:43:51.587Z,0.90
2022-12-14T14:46:23.060Z,0.90
2022-12-14T14:48:55.175Z,0.90
2022-12-14T14:51:26.459Z,0.80
2022-12-14T14:57:36.139Z,0.70
2022-12-14T15:00:07.125Z,0.70
2022-12-14T15:02:43.080Z,0.70
2022-12-14T15:08:18.428Z,0.70
2022-12-14T15:10:47.745Z,0.70
2022-12-14T15:13:21.030Z,0.70
2022-12-14T15:15:53.116Z,0.70
2022-12-14T15:18:24.547Z,0.70
2022-12-14T15:21:00.742Z,0.70
2022-12-14T15:23:35.953Z,0.70
2022-12-14T15:26:16.579Z,0.70
2022-12-14T15:28:49.604Z,0.70
2022-12-14T15:31:18.232Z,0.70
2022-12-14T15:33:48.988Z,0.80
2022-12-14T15:36:20.596Z,0.80
2022-12-14T15:38:54.963Z,0.80
2022-12-14T15:41:25.551Z,0.80
2022-12-14T15:43:59.792Z,0.80
2022-12-14T15:46:31.298Z,0.80
2022-12-14T15:49:01.754Z,0.80
2022-12-14T15:51:34.131Z,0.80
2022-12-14T15:54:05.144Z,0.80
2022-12-14T15:56:36.825Z,0.80
2022-12-14T15:59:14.499Z,0.70
2022-12-14T16:01:53.597Z,0.70
2022-12-14T16:04:27.631Z,0.70
2022-12-14T16:07:07.883Z,0.70
2022-12-14T16:09:41.073Z,0.70
2022-12-14T16:12:18.861Z,0.70
2022-12-14T16:14:54.140Z,0.70
2022-12-14T16:17:25.851Z,0.70
2022-12-14T16:20:00.202Z,0.70
2022-12-14T16:22:32.042Z,0.70
2022-12-14T16:25:18.166Z,0.70
2022-12-14T16:27:49.807Z,0.70
2022-12-14T16:30:25.162Z,0.70
2022-12-14T16:33:05.222Z,0.70
2022-12-14T16:35:36.409Z,0.70
2022-12-14T16:38:09.633Z,0.80
2022-12-14T16:40:40.364Z,0.80
2022-12-14T16:43:27.061Z,0.80
2022-12-14T16:46:16.195Z,0.80
2022-12-14T16:49:18.969Z,0.80
2022-12-14T16:52:07.312Z,0.80
2022-12-14T16:54:39.203Z,0.80
2022-12-14T16:57:20.690Z,0.80
2022-12-14T16:59:57.075Z,0.80
2022-12-14T17:02:30.478Z,0.80
2022-12-14T17:05:02.563Z,0.80
2022-12-14T17:07:33.158Z,0.80
2022-12-14T17:10:03.340Z,0.80
2022-12-14T17:12:31.636Z,0.80
2022-12-14T17:14:59.950Z,0.80
2022-12-14T17:17:35.396Z,0.80
2022-12-14T17:20:08.047Z,0.80
2022-12-14T17:22:40.845Z,0.80
2022-12-14T17:25:14.149Z,0.80
2022-12-14T17:27:43.269Z,0.80
2022-12-14T17:30:16.773Z,0.80
2022-12-14T17:32:48.557Z,0.80
2022-12-14T17:35:18.311Z,0.80
2022-12-14T17:37:46.676Z,0.80
2022-12-14T17:40:16.441Z,0.80
2022-12-14T17:42:52.221Z,0.80
2022-12-14T17:45:23.366Z,0.90
2022-12-14T17:47:52.236Z,0.90
2022-12-14T17:50:21.119Z,0.90
2022-12-14T17:52:51.840Z,0.90
2022-12-14T17:55:24.519Z,0.90
2022-12-14T17:57:54.300Z,0.90
2022-12-14T18:00:42.606Z,0.90
2022-12-14T18:03:12.768Z,0.90
2022-12-14T18:05:48.390Z,0.90
2022-12-14T18:08:18.386Z,0.90
2022-12-14T18:10:52.531Z,0.90
2022-12-14T18:13:21.782Z,0.90
2022-12-14T18:15:52.157Z,0.90
2022-12-14T18:18:21.847Z,0.80
2022-12-14T18:20:53.881Z,0.80
2022-12-14T18:23:23.569Z,0.80
2022-12-14T18:25:55.267Z,0.80
2022-12-14T18:28:24.447Z,0.70
2022-12-14T18:30:55.690Z,0.70
2022-12-14T18:33:27.122Z,0.70
2022-12-14T18:35:57.644Z,0.70
2022-12-14T18:38:26.800Z,0.70
2022-12-14T18:40:58.787Z,0.70
2022-12-14T18:43:28.998Z,0.70
2022-12-14T18:45:58.542Z,0.60
2022-12-14T18:48:27.056Z,0.60
2022-12-14T18:50:56.872Z,0.60
2022-12-14T18:53:27.300Z,0.60
2022-12-14T18:55:57.570Z,0.60
2022-12-14T18:58:28.474Z,0.70
2022-12-14T19:00:59.267Z,0.70
2022-12-14T19:03:30.826Z,0.80
2022-12-14T19:06:42.442Z,0.90
2022-12-14T19:08:56.971Z,1.00
2022-12-14T19:11:31.576Z,1.10
2022-12-14T19:14:11.596Z,1.30
2022-12-14T19:16:40.249Z,1.40
2022-12-14T19:19:08.648Z,1.40
2022-12-14T19:21:37.090Z,1.40
2022-12-14T19:24:08.463Z,1.30
2022-12-14T19:26:38.956Z,1.20
2022-12-14T19:29:07.452Z,1.10
2022-12-14T19:31:36.150Z,1.10
2022-12-14T19:34:04.619Z,1.00
2022-12-14T19:36:33.140Z,1.00
2022-12-14T19:39:02.675Z,0.90
2022-12-14T19:41:31.396Z,0.90
2022-12-14T19:44:00.990Z,0.90
2022-12-14T19:46:29.447Z,0.90
2022-12-14T19:48:59.973Z,0.90
2022-12-14T19:51:28.507Z,0.90
2022-12-14T19:53:56.737Z,0.90
2022-12-14T19:56:24.991Z,0.90
2022-12-14T19:58:57.666Z,0.80
2022-12-14T20:01:32.497Z,0.80
2022-12-14T20:04:01.616Z,0.80
2022-12-14T20:06:30.192Z,0.80
2022-12-14T20:08:59.658Z,0.80
2022-12-14T20:11:28.102Z,0.80
2022-12-14T20:14:02.477Z,0.80
2022-12-14T20:16:33.222Z,0.80
2022-12-14T20:19:01.533Z,0.80
2022-12-14T20:21:34.244Z,0.80
2022-12-14T20:24:03.309Z,0.80
2022-12-14T20:26:32.048Z,0.80
2022-12-14T20:29:04.968Z,0.80
2022-12-14T20:31:35.364Z,0.80
2022-12-14T20:34:05.778Z,0.80
2022-12-14T20:36:35.494Z,0.80
2022-12-14T20:39:06.821Z,0.80
2022-12-14T20:41:36.031Z,0.80
2022-12-14T20:44:09.277Z,0.80
2022-12-14T20:46:42.444Z,0.80
2022-12-14T20:49:13.314Z,0.80
2022-12-14T20:51:41.790Z,0.70
2022-12-14T20:54:12.882Z,0.70
2022-12-14T20:56:41.483Z,0.70
2022-12-14T20:59:10.980Z,0.70
2022-12-14T21:01:42.425Z,0.70
2022-12-14T21:04:11.186Z,0.60
2022-12-14T21:06:41.697Z,0.60
2022-12-14T21:09:12.981Z,0.60
2022-12-14T21:12:00.489Z,0.60
2022-12-14T21:14:32.417Z,0.60
2022-12-14T21:17:03.897Z,0.60
2022-12-14T21:19:32.823Z,0.60
2022-12-14T21:22:01.087Z,0.60
2022-12-14T21:25:02.218Z,0.60
2022-12-14T21:27:20.505Z,0.60
2022-12-14T21:29:49.712Z,0.60
2022-12-14T21:32:20.885Z,0.60
2022-12-14T21:34:50.244Z,0.60
2022-12-14T21:37:19.070Z,0.60
2022-12-14T21:39:53.928Z,0.60
2022-12-14T21:42:22.638Z,0.50
2022-12-14T21:44:52.311Z,0.50
2022-12-14T21:47:23.781Z,0.50
2022-12-14T21:49:52.574Z,0.50
2022-12-14T21:52:22.898Z,0.50
2022-12-14T21:54:51.530Z,0.50
2022-12-14T21:57:38.937Z,0.40
2022-12-14T22:00:09.254Z,0.40
2022-12-14T22:02:44.803Z,0.40
2022-12-14T22:05:13.254Z,0.40
2022-12-14T22:07:42.061Z,0.40
2022-12-14T22:10:10.473Z,0.40
2022-12-14T22:12:38.712Z,0.40
2022-12-14T22:15:08.429Z,0.30
2022-12-14T22:17:36.765Z,0.30
2022-12-14T22:20:07.478Z,0.30
2022-12-14T22:22:35.735Z,0.30
2022-12-14T22:25:04.164Z,0.30
2022-12-14T22:27:32.769Z,0.30
2022-12-14T22:30:01.244Z,0.30
2022-12-14T22:32:29.478Z,0.30
2022-12-14T22:34:57.691Z,0.30
2022-12-14T22:37:27.844Z,0.20
2022-12-14T22:39:56.924Z,0.20
2022-12-14T22:42:25.463Z,0.20
2022-12-14T22:44:54.639Z,0.20
2022-12-14T22:47:22.941Z,0.20
2022-12-14T22:49:51.489Z,0.20
2022-12-14T22:52:24.741Z,0.10
2022-12-14T22:54:55.169Z,0.10
2022-12-14T22:57:23.823Z,0.10
2022-12-14T22:59:59.848Z,0.10
2022-12-14T23:02:29.856Z,0.10
2022-12-14T23:04:58.392Z,0.00
2022-12-14T23:07:26.720Z,0.00
2022-12-14T23:10:13.616Z,0.00
2022-12-14T23:12:59.438Z,-0.10
2022-12-14T23:15:45.460Z,-0.10
2022-12-14T23:18:31.653Z,-0.10
2022-12-14T23:21:18.034Z,-0.10
2022-12-14T23:24:04.625Z,-0.10
2022-12-14T23:26:52.036Z,-0.10
2022-12-14T23:29:37.602Z,-0.10
2022-12-14T23:32:24.424Z,-0.10
2022-12-14T23:35:10.489Z,-0.10
2022-12-14T23:37:56.675Z,0.00
2022-12-14T23:40:42.852Z,0.00
2022-12-14T23:43:31.572Z,0.00
2022-12-14T23:46:18.374Z,0.00
2022-12-14T23:49:04.296Z,0.00
2022-12-14T23:51:50.106Z,0.00
2022-12-14T23:54:35.886Z,0.10
2022-12-14T23:57:25.870Z,0.10
